Time;durP1;ratioP1;P1;durP2;ratioP2;P2;SDS_P1;SDS_P2;PMS_P1;PMS_P2;Temp;Humidity;BMP_temperature;BMP_pressure;BME280_temperature;BME280_humidity;BME280_pressure;Samples;Min_cycle;Max_cycle;Signal;HPM_P1;HPM_P2
2021/04/26 00:00:16;;;;;;;4.07;1.50;;;;;;;7.93;59.63;100185.78;4324888;33;20503;-93
2021/04/26 00:02:42;;;;;;;3.53;1.20;;;;;;;7.77;59.63;100186.88;4326026;33;20436;-93
2021/04/26 00:05:08;;;;;;;2.42;1.20;;;;;;;7.79;59.62;100179.91;4325244;33;20171;-92
2021/04/26 00:07:33;;;;;;;2.45;1.50;;;;;;;7.56;59.62;100174.19;4325387;33;20107;-92
2021/04/26 00:09:59;;;;;;;3.55;1.20;;;;;;;7.57;59.61;100184.56;4324924;33;20192;-92
2021/04/26 00:12:25;;;;;;;4.30;1.25;;;;;;;7.42;59.60;100182.16;4348879;33;20095;-92
2021/04/26 00:14:50;;;;;;;4.05;1.83;;;;;;;7.58;59.61;100177.66;4324824;33;20430;-95
2021/04/26 00:17:16;;;;;;;2.20;1.05;;;;;;;7.61;59.62;100175.87;4324667;33;20175;-92
2021/04/26 00:19:41;;;;;;;5.00;1.50;;;;;;;7.38;59.60;100175.31;4325122;33;20133;-95
2021/04/26 00:22:07;;;;;;;4.65;1.50;;;;;;;7.20;59.59;100176.37;4324996;33;20099;-94
2021/04/26 00:24:32;;;;;;;3.33;1.45;;;;;;;7.08;59.58;100179.94;4324914;33;20111;-94
2021/04/26 00:26:57;;;;;;;5.43;1.62;;;;;;;7.00;59.57;100176.59;4325036;33;20149;-94
2021/04/26 00:29:23;;;;;;;5.93;1.40;;;;;;;7.05;59.58;100179.97;4337063;33;20413;-94
2021/04/26 00:31:48;;;;;;;4.95;1.80;;;;;;;6.98;59.58;100185.25;4324944;33;20445;-94
2021/04/26 00:34:14;;;;;;;7.80;1.80;;;;;;;7.05;59.58;100184.28;4324609;33;22942;-95
2021/04/26 00:36:39;;;;;;;5.00;1.73;;;;;;;6.94;59.57;100199.09;4326987;33;20125;-95
2021/04/26 00:39:04;;;;;;;3.87;1.40;;;;;;;6.88;59.57;100193.97;4325958;33;20121;-96
2021/04/26 00:41:30;;;;;;;3.33;1.45;;;;;;;7.08;59.58;100192.03;4326952;33;20143;-95
2021/04/26 00:44:31;;;;;;;4.03;1.40;;;;;;;6.99;59.58;100189.53;4347601;33;20143;-96
2021/04/26 00:47:16;;;;;;;3.25;1.45;;;;;;;6.71;59.56;100189.81;4352069;32;20141;-94
2021/04/26 00:49:41;;;;;;;3.60;1.60;;;;;;;6.86;59.57;100196.59;4326286;33;20448;-94
2021/04/26 00:52:07;;;;;;;2.45;1.33;;;;;;;6.64;59.55;100189.91;4326506;33;20080;-92
2021/04/26 00:54:32;;;;;;;3.58;1.37;;;;;;;6.64;59.55;100197.66;4325821;33;20111;-95
2021/04/26 00:56:58;;;;;;;4.15;1.48;;;;;;;6.77;59.56;100189.75;4327609;33;20131;-95
2021/04/26 00:59:23;;;;;;;4.65;2.10;;;;;;;6.53;59.55;100195.16;4325806;33;20833;-94
2021/04/26 01:01:48;;;;;;;5.30;1.58;;;;;;;6.54;59.55;100188.25;4325599;33;20447;-92
2021/04/26 01:04:14;;;;;;;2.33;1.15;;;;;;;6.72;59.55;100182.91;4349957;33;20120;-93
2021/04/26 01:06:41;;;;;;;2.37;1.33;;;;;;;6.52;59.55;100180.50;4325852;33;20151;-92
2021/04/26 01:09:06;;;;;;;3.67;1.37;;;;;;;6.55;59.55;100175.28;4326276;33;20125;-93
2021/04/26 01:11:55;;;;;;;5.57;1.25;;;;;;;6.46;59.55;100173.66;4325536;33;21362;-92
2021/04/26 01:14:48;;;;;;;4.43;1.20;;;;;;;6.43;59.55;100172.84;4326538;32;90263;-94
2021/04/26 01:17:21;;;;;;;2.60;1.42;;;;;;;6.47;59.55;100179.69;4350844;33;20483;-93
2021/04/26 01:19:50;;;;;;;3.85;1.50;;;;;;;6.37;59.54;100186.66;4327668;33;20167;-94
2021/04/26 01:22:56;;;;;;;3.47;1.35;;;;;;;6.18;59.53;100176.47;4350763;33;20159;-94
2021/04/26 01:25:22;;;;;;;5.93;1.48;;;;;;;6.33;59.53;100179.78;4340219;33;20162;-94
2021/04/26 01:28:03;;;;;;;4.97;1.75;;;;;;;6.26;59.53;100178.12;4326101;33;20114;-92
2021/04/26 01:31:07;;;;;;;2.80;1.17;;;;;;;6.12;59.52;100173.06;4326548;33;20138;-94
2021/04/26 01:33:34;;;;;;;3.33;1.20;;;;;;;6.21;59.53;100177.31;4350625;33;20650;-93
2021/04/26 01:36:01;;;;;;;2.67;1.17;;;;;;;6.20;59.54;100177.31;4330194;33;20145;-94
2021/04/26 01:38:37;;;;;;;4.85;1.48;;;;;;;6.14;59.53;100178.22;4328320;33;20107;-95
2021/04/26 01:41:02;;;;;;;5.12;1.50;;;;;;;5.97;59.52;100174.91;4327308;33;20154;-96
2021/04/26 01:43:28;;;;;;;2.60;1.17;;;;;;;5.91;59.52;100178.34;4326824;33;20107;-95
2021/04/26 01:45:54;;;;;;;3.12;1.40;;;;;;;5.78;59.51;100179.28;4327149;33;20112;-95
2021/04/26 01:48:20;;;;;;;2.75;1.37;;;;;;;5.85;59.51;100165.44;4326822;33;20141;-94
2021/04/26 01:50:45;;;;;;;5.35;1.37;;;;;;;5.70;59.51;100161.25;4326626;33;20150;-95
2021/04/26 01:53:11;;;;;;;3.22;1.58;;;;;;;5.76;59.52;100161.22;4326273;33;20142;-95
2021/04/26 01:56:05;;;;;;;3.37;1.58;;;;;;;5.55;59.49;100161.31;4346246;32;20103;-94
2021/04/26 01:58:34;;;;;;;2.40;1.35;;;;;;;5.50;59.49;100163.09;4363539;32;20063;-96
2021/04/26 02:01:01;;;;;;;3.53;1.35;;;;;;;5.51;59.49;100151.88;4352688;33;20114;-95
2021/04/26 02:03:27;;;;;;;4.68;1.35;;;;;;;5.38;59.48;100148.50;4327438;33;20099;-96
2021/04/26 02:05:54;;;;;;;2.75;1.23;;;;;;;5.37;59.48;100151.09;4326966;33;20107;-96
2021/04/26 02:08:20;;;;;;;3.80;1.58;;;;;;;5.35;59.48;100164.00;4327179;33;20185;-95
2021/04/26 02:10:45;;;;;;;4.05;1.27;;;;;;;5.23;59.47;100162.34;4326658;33;20112;-94
2021/04/26 02:13:20;;;;;;;3.03;1.50;;;;;;;5.22;59.47;100175.25;4327282;33;20089;-93
2021/04/26 02:15:46;;;;;;;3.17;1.52;;;;;;;5.22;59.47;100173.53;4326384;33;20099;-94
2021/04/26 02:18:11;;;;;;;2.33;1.00;;;;;;;5.14;59.47;100175.25;4325717;33;20134;-95
2021/04/26 02:20:37;;;;;;;3.45;1.30;;;;;;;5.14;59.47;100179.56;4338070;33;20091;-95
2021/04/26 02:23:02;;;;;;;1.67;1.05;;;;;;;5.38;59.48;100182.03;4325596;33;20130;-95
2021/04/26 02:25:28;;;;;;;5.05;1.50;;;;;;;5.17;59.47;100184.69;4325213;33;20112;-93
2021/04/26 02:27:54;;;;;;;4.03;1.35;;;;;;;5.20;59.47;100184.69;4349748;33;20185;-91
2021/04/26 02:30:19;;;;;;;2.30;1.17;;;;;;;5.07;59.46;100186.47;4324592;33;25087;-93
2021/04/26 02:32:57;;;;;;;5.12;1.20;;;;;;;5.03;59.46;100182.19;4325413;33;20084;-94
2021/04/26 02:35:34;;;;;;;2.95;1.33;;;;;;;5.03;59.46;100184.75;4350018;33;20125;-93
2021/04/26 02:38:02;;;;;;;3.75;1.33;;;;;;;5.10;59.47;100181.28;4337739;33;20115;-94
2021/04/26 02:40:28;;;;;;;3.28;1.35;;;;;;;5.12;59.47;100174.41;4325439;33;20091;-96
2021/04/26 02:42:55;;;;;;;3.05;1.20;;;;;;;4.97;59.46;100189.94;4325417;33;20637;-94
2021/04/26 02:45:23;;;;;;;4.12;1.45;;;;;;;4.81;59.45;100185.66;4337505;33;20141;-94
2021/04/26 02:47:48;;;;;;;4.80;1.65;;;;;;;4.83;59.45;100187.38;4325458;33;20115;-93
2021/04/26 02:50:20;;;;;;;5.15;1.50;;;;;;;5.02;59.47;100183.03;4325614;33;20130;-94
2021/04/26 02:52:46;;;;;;;3.05;1.33;;;;;;;4.87;59.46;100188.22;4327314;32;20095;-93
2021/04/26 02:55:12;;;;;;;2.58;1.35;;;;;;;4.77;59.45;100183.97;4341820;32;20114;-95
2021/04/26 02:57:37;;;;;;;4.28;1.25;;;;;;;4.99;59.46;100183.06;4339713;32;20128;-94
2021/04/26 03:00:10;;;;;;;3.53;1.35;;;;;;;4.88;59.46;100187.38;4339927;32;20133;-93
2021/04/26 03:02:36;;;;;;;3.80;1.30;;;;;;;4.80;59.45;100192.56;4339129;32;20141;-93
2021/04/26 03:05:01;;;;;;;4.28;1.50;;;;;;;4.77;59.44;100194.28;4339279;32;20380;-94
2021/04/26 03:07:27;;;;;;;3.60;1.45;;;;;;;4.76;59.44;100196.00;4339573;32;20486;-93
2021/04/26 03:09:52;;;;;;;6.22;1.30;;;;;;;4.69;59.44;100196.84;4338729;32;20775;-93
2021/04/26 03:12:18;;;;;;;4.82;1.73;;;;;;;4.89;59.45;100208.00;4339419;32;20107;-94
2021/04/26 03:14:43;;;;;;;5.75;1.98;;;;;;;4.89;59.45;100208.00;4341414;32;20123;-94
2021/04/26 03:17:08;;;;;;;5.32;1.85;;;;;;;4.75;59.45;100212.34;4340157;32;20146;-95
2021/04/26 03:19:36;;;;;;;4.05;1.77;;;;;;;4.73;59.45;100208.00;4339804;32;20397;-93
2021/04/26 03:22:02;;;;;;;6.03;1.90;;;;;;;4.78;59.44;100214.03;4339525;32;20125;-93
2021/04/26 03:24:28;;;;;;;6.20;1.77;;;;;;;4.79;59.45;100206.31;4351938;32;20130;-93
2021/04/26 03:26:54;;;;;;;6.90;2.40;;;;;;;4.76;59.44;100210.63;4339344;32;20196;-93
2021/04/26 03:29:21;;;;;;;6.35;1.87;;;;;;;4.78;59.44;100214.91;4339702;32;20083;-95
2021/04/26 03:31:46;;;;;;;4.70;2.10;;;;;;;4.73;59.45;100213.16;4339747;32;20087;-94
2021/04/26 03:34:12;;;;;;;4.28;1.85;;;;;;;4.56;59.44;100215.78;4341804;32;20141;-93
2021/04/26 03:36:39;;;;;;;4.18;1.62;;;;;;;4.80;59.45;100215.75;4339697;32;20201;-95
2021/04/26 03:39:06;;;;;;;8.02;1.90;;;;;;;4.68;59.44;100217.47;4339954;32;20099;-95
2021/04/26 03:41:32;;;;;;;3.67;1.75;;;;;;;4.71;59.44;100225.22;4339643;32;20195;-95
2021/04/26 03:43:57;;;;;;;5.18;2.10;;;;;;;4.63;59.43;100213.19;4339213;32;20111;-92
2021/04/26 03:46:23;;;;;;;6.03;2.12;;;;;;;4.76;59.44;100211.47;4350651;32;20122;-92
2021/04/26 03:48:48;;;;;;;5.57;1.60;;;;;;;4.98;59.46;100214.88;4337642;32;20143;-92
2021/04/26 03:51:14;;;;;;;8.10;2.28;;;;;;;4.85;59.45;100208.00;4338144;32;20130;-92
2021/04/26 03:53:39;;;;;;;2.97;1.90;;;;;;;4.95;59.46;100204.53;4337118;32;33039;-92
2021/04/26 03:56:05;;;;;;;5.47;2.22;;;;;;;5.05;59.46;100205.41;4338385;32;25708;-94
2021/04/26 03:58:30;;;;;;;4.57;2.33;;;;;;;5.27;59.48;100196.72;4338540;32;20110;-94
2021/04/26 04:00:55;;;;;;;3.45;1.83;;;;;;;5.18;59.47;100191.59;4351349;32;28040;-94
2021/04/26 04:03:21;;;;;;;3.28;1.52;;;;;;;5.17;59.47;100198.47;4339357;32;20174;-95
2021/04/26 04:05:46;;;;;;;10.57;2.03;;;;;;;5.10;59.47;100196.78;4339274;32;20118;-95
2021/04/26 04:08:12;;;;;;;6.35;2.00;;;;;;;5.47;59.49;100199.25;4340189;32;20131;-94
2021/04/26 04:10:37;;;;;;;4.78;1.83;;;;;;;5.38;59.48;100205.28;4339791;32;20177;-95
2021/04/26 04:13:03;;;;;;;4.40;1.87;;;;;;;5.45;59.48;100200.97;4339114;32;20170;-94
2021/04/26 04:15:28;;;;;;;2.85;1.58;;;;;;;5.61;59.49;100206.91;4350314;32;20146;-96
2021/04/26 04:17:53;;;;;;;5.25;2.17;;;;;;;5.78;59.51;100207.69;4351263;32;24159;-93
2021/04/26 04:20:19;;;;;;;4.53;2.12;;;;;;;5.86;59.51;100199.03;4339474;32;20349;-96
2021/04/26 04:22:44;;;;;;;3.85;2.03;;;;;;;6.11;59.52;100202.34;4339720;32;20151;-95
2021/04/26 04:25:10;;;;;;;3.95;1.75;;;;;;;6.20;59.53;100204.03;4351622;32;20102;-94
2021/04/26 04:27:36;;;;;;;5.53;1.95;;;;;;;6.24;59.53;100203.13;4341735;32;20145;-96
2021/04/26 04:30:03;;;;;;;5.35;1.98;;;;;;;6.11;59.52;100198.91;4340698;32;20153;-95
2021/04/26 04:32:28;;;;;;;5.87;2.12;;;;;;;6.24;59.53;100197.09;4337022;32;20094;-91
2021/04/26 04:34:54;;;;;;;5.62;2.25;;;;;;;6.32;59.54;100203.06;4336124;32;28158;-96
2021/04/26 04:37:19;;;;;;;9.52;2.00;;;;;;;6.39;59.54;100202.19;4350866;32;20211;-91
2021/04/26 04:39:44;;;;;;;6.35;2.00;;;;;;;6.61;59.55;100201.09;4350461;32;20099;-93
2021/04/26 04:42:10;;;;;;;6.53;2.83;;;;;;;6.74;59.57;100196.69;4337583;32;20428;-93
2021/04/26 04:44:35;;;;;;;8.27;2.70;;;;;;;6.84;59.56;100198.31;4336474;32;20184;-91
2021/04/26 04:47:01;;;;;;;7.68;2.85;;;;;;;7.04;59.58;100198.97;4348303;32;30928;-92
2021/04/26 04:49:26;;;;;;;5.40;2.80;;;;;;;7.08;59.58;100195.47;4340444;32;20161;-92
2021/04/26 04:51:51;;;;;;;7.75;2.30;;;;;;;7.13;59.58;100190.25;4337752;32;20103;-90
2021/04/26 04:54:17;;;;;;;6.00;1.90;;;;;;;7.16;59.58;100194.53;4338050;32;20174;-90
2021/04/26 04:56:42;;;;;;;8.77;1.98;;;;;;;7.19;59.59;100189.31;4338336;32;20146;-91
2021/04/26 04:59:08;;;;;;;5.22;2.05;;;;;;;7.47;59.61;100182.09;4336812;32;20803;-91
2021/04/26 05:01:33;;;;;;;7.82;2.08;;;;;;;7.49;59.60;100182.91;4347904;32;20508;-88
2021/04/26 05:03:59;;;;;;;7.43;2.10;;;;;;;7.61;59.62;100181.03;4348419;32;20235;-90
2021/04/26 05:06:24;;;;;;;4.62;1.60;;;;;;;7.61;59.61;100188.81;4336379;32;20125;-90
2021/04/26 05:08:49;;;;;;;8.75;2.40;;;;;;;7.75;59.61;100193.81;4350381;32;20236;-89
2021/04/26 05:11:15;;;;;;;8.45;2.25;;;;;;;7.87;59.63;100188.47;4335965;32;20487;-91
2021/04/26 05:13:41;;;;;;;8.60;2.55;;;;;;;8.12;59.63;100199.34;4348034;32;20106;-89
2021/04/26 05:16:06;;;;;;;5.22;2.35;;;;;;;8.37;59.65;100192.06;4335172;32;20118;-90
2021/04/26 05:18:32;;;;;;;6.00;2.10;;;;;;;8.36;59.64;100195.53;4347532;32;20138;-89
2021/04/26 05:20:57;;;;;;;4.72;1.90;;;;;;;8.61;59.67;100193.41;4347702;32;20129;-90
2021/04/26 05:23:23;;;;;;;7.57;2.72;;;;;;;8.59;59.67;100197.75;4335939;32;20201;-90
2021/04/26 05:25:49;;;;;;;6.40;2.17;;;;;;;8.88;59.68;100185.13;4336002;32;20119;-91
2021/04/26 05:28:14;;;;;;;6.07;2.30;;;;;;;8.86;59.68;100186.91;4337440;32;20146;-89
2021/04/26 05:30:40;;;;;;;7.43;2.22;;;;;;;9.14;59.69;100183.78;4336808;32;20508;-89
2021/04/26 05:33:05;;;;;;;6.80;2.90;;;;;;;9.35;59.71;100182.50;4349238;32;20134;-89
2021/04/26 05:35:30;;;;;;;6.82;3.78;;;;;;;9.32;59.70;100173.03;4349294;32;20111;-89
2021/04/26 05:37:56;;;;;;;7.28;3.10;;;;;;;9.44;59.71;100166.72;4349291;32;28863;-90
2021/04/26 05:40:21;;;;;;;4.62;2.47;;;;;;;9.47;59.71;100172.75;4337527;32;20166;-92
2021/04/26 05:42:47;;;;;;;4.50;2.90;;;;;;;9.68;59.72;100166.19;4337485;32;23023;-90
2021/04/26 05:45:12;;;;;;;7.35;2.83;;;;;;;9.91;59.74;100164.84;4337750;32;20163;-90
2021/04/26 05:47:38;;;;;;;8.68;2.80;;;;;;;9.88;59.73;100165.78;4337435;32;20449;-91
2021/04/26 05:50:03;;;;;;;5.50;2.45;;;;;;;9.93;59.74;100153.50;4336883;32;24047;-90
2021/04/26 05:52:29;;;;;;;7.00;2.87;;;;;;;9.97;59.74;100157.78;4337473;32;20158;-90
2021/04/26 05:54:54;;;;;;;4.97;2.78;;;;;;;10.12;59.75;100162.59;4349552;32;26114;-90
2021/04/26 05:57:20;;;;;;;5.90;2.92;;;;;;;10.24;59.76;100158.91;4337387;32;20103;-91
2021/04/26 05:59:45;;;;;;;6.00;2.87;;;;;;;10.59;59.77;100157.16;4337867;32;20186;-90
2021/04/26 06:02:10;;;;;;;6.03;2.85;;;;;;;10.73;59.79;100150.72;4337811;32;20504;-90
2021/04/26 06:04:36;;;;;;;5.85;2.60;;;;;;;10.94;59.80;100158.84;4337418;32;20169;-91
2021/04/26 06:07:01;;;;;;;6.68;2.90;;;;;;;11.11;59.81;100147.94;4349481;32;20111;-90
2021/04/26 06:09:27;;;;;;;4.10;2.45;;;;;;;11.48;59.83;100137.34;4337151;32;20102;-91
2021/04/26 06:11:52;;;;;;;6.00;2.70;;;;;;;11.61;59.83;100138.69;4337253;32;20138;-91
2021/04/26 06:14:17;;;;;;;7.22;3.00;;;;;;;11.82;59.84;100135.44;4349778;32;20480;-89
2021/04/26 06:16:43;;;;;;;5.70;2.90;;;;;;;11.91;59.85;100131.72;4349940;32;20650;-91
2021/04/26 06:19:08;;;;;;;6.07;3.17;;;;;;;12.05;59.85;100133.88;4344993;32;28734;-89
2021/04/26 06:21:34;;;;;;;7.07;2.87;;;;;;;12.12;59.85;100128.44;4348575;32;20158;-90
2021/04/26 06:23:59;;;;;;;10.88;3.85;;;;;;;12.24;59.87;100127.16;4349419;32;20128;-91
2021/04/26 06:26:25;;;;;;;5.70;2.55;;;;;;;12.28;59.86;100118.31;4349233;32;20119;-88
2021/04/26 06:28:50;;;;;;;5.95;2.70;;;;;;;12.57;59.89;100118.22;4348938;32;20103;-89
2021/04/26 06:31:15;;;;;;;7.57;2.80;;;;;;;12.70;59.89;100117.78;4336255;32;21370;-90
2021/04/26 06:33:41;;;;;;;9.50;2.55;;;;;;;12.78;59.89;100108.78;4336749;32;20139;-89
2021/04/26 06:36:06;;;;;;;4.95;2.30;;;;;;;13.11;59.92;100106.72;4336685;32;20156;-89
2021/04/26 06:38:32;;;;;;;5.60;2.72;;;;;;;13.14;59.92;100106.59;4335614;32;20119;-89
2021/04/26 06:40:59;;;;;;;7.03;2.90;;;;;;;13.09;59.91;100108.53;4336518;32;20169;-89
2021/04/26 06:43:24;;;;;;;4.65;2.70;;;;;;;13.14;59.92;100113.59;4348613;32;20130;-90
2021/04/26 06:45:50;;;;;;;5.20;2.85;;;;;;;13.15;59.92;100120.53;4348322;32;21262;-89
2021/04/26 06:48:16;;;;;;;5.10;2.35;;;;;;;13.30;59.93;100122.63;4335273;32;20509;-89
2021/04/26 06:50:42;;;;;;;4.53;2.40;;;;;;;13.55;59.94;100125.16;4347496;32;20127;-89
2021/04/26 06:53:07;;;;;;;4.70;1.98;;;;;;;13.80;59.96;100130.28;4345874;33;20103;-89
2021/04/26 06:55:32;;;;;;;6.97;2.17;;;;;;;13.70;59.95;100135.00;4321924;33;20143;-91
2021/04/26 06:57:58;;;;;;;8.27;2.20;;;;;;;13.78;59.95;100132.13;4321735;33;20150;-88
2021/04/26 07:00:24;;;;;;;3.83;2.17;;;;;;;13.84;59.96;100131.87;4321949;33;20137;-90
2021/04/26 07:02:50;;;;;;;6.00;1.50;;;;;;;14.00;59.96;100134.75;4330770;33;20138;-90
2021/04/26 07:05:15;;;;;;;4.82;2.05;;;;;;;13.82;59.96;100138.94;4333970;33;20108;-87
2021/04/26 07:07:40;;;;;;;3.58;2.30;;;;;;;13.80;59.96;100152.06;4321708;33;20111;-89
2021/04/26 07:10:06;;;;;;;4.82;2.33;;;;;;;13.98;59.96;100147.91;4346296;33;20142;-88
2021/04/26 07:12:32;;;;;;;10.52;2.42;;;;;;;14.07;59.97;100146.66;4346564;33;20130;-90
2021/04/26 07:14:57;;;;;;;4.57;2.08;;;;;;;14.17;59.97;100149.75;4321756;33;20350;-89
2021/04/26 07:17:23;;;;;;;3.35;1.70;;;;;;;14.18;59.98;100146.22;4334081;33;20107;-89
2021/04/26 07:19:50;;;;;;;6.20;2.20;;;;;;;14.36;59.99;100150.72;4345855;33;20107;-90
2021/04/26 07:22:15;;;;;;;8.95;2.08;;;;;;;14.61;60.00;100147.97;4321954;33;20129;-89
2021/04/26 07:24:40;;;;;;;5.32;1.90;;;;;;;14.89;60.02;100145.84;4320316;33;20103;-88
2021/04/26 07:27:06;;;;;;;4.28;1.92;;;;;;;14.86;60.02;100146.00;4321574;33;20502;-89
2021/04/26 07:29:31;;;;;;;3.22;1.85;;;;;;;15.07;60.02;100143.34;4346205;32;20103;-90
2021/04/26 07:31:57;;;;;;;4.60;2.12;;;;;;;14.96;60.02;100135.97;4319154;33;20150;-88
2021/04/26 07:34:23;;;;;;;3.53;1.87;;;;;;;15.05;60.02;100133.78;4332649;33;20389;-88
2021/04/26 07:36:48;;;;;;;3.67;1.70;;;;;;;14.99;60.02;100135.84;4333104;33;20123;-88
2021/04/26 07:39:15;;;;;;;3.53;1.67;;;;;;;14.92;60.01;100137.03;4345628;33;20122;-88
2021/04/26 07:41:40;;;;;;;3.42;1.77;;;;;;;14.79;60.02;100139.31;4333214;33;20480;-87
2021/04/26 07:44:06;;;;;;;3.00;1.83;;;;;;;14.63;60.01;100143.50;4321187;33;20198;-87
2021/04/26 07:46:31;;;;;;;3.53;1.60;;;;;;;14.51;60.00;100149.28;4345572;33;20119;-88
2021/04/26 07:48:57;;;;;;;3.42;1.70;;;;;;;14.31;59.98;100153.53;4345224;33;20138;-88
2021/04/26 07:51:22;;;;;;;3.35;1.77;;;;;;;14.23;59.98;100150.38;4345592;33;20135;-87
2021/04/26 07:53:47;;;;;;;2.95;1.87;;;;;;;14.35;59.99;100149.88;4333052;33;20115;-88
2021/04/26 07:56:13;;;;;;;3.92;2.28;;;;;;;14.22;59.97;100140.81;4345485;33;20129;-89
2021/04/26 07:58:38;;;;;;;2.80;1.83;;;;;;;14.42;59.99;100145.22;4321205;33;20154;-90
2021/04/26 08:01:03;;;;;;;4.78;1.80;;;;;;;14.61;60.00;100135.72;4321023;33;21330;-89
2021/04/26 08:03:29;;;;;;;5.55;1.50;;;;;;;14.96;60.02;100142.06;4345575;33;20113;-89
2021/04/26 08:05:54;;;;;;;2.70;1.70;;;;;;;15.01;60.02;100141.87;4320792;33;20170;-89
2021/04/26 08:08:20;;;;;;;4.70;1.73;;;;;;;14.82;60.01;100144.44;4320997;33;20151;-89
2021/04/26 08:10:46;;;;;;;4.07;1.40;;;;;;;14.93;60.03;100141.34;4321286;33;20135;-90
2021/04/26 08:13:11;;;;;;;4.12;2.00;;;;;;;14.85;60.01;100143.44;4333233;33;20092;-90
2021/04/26 08:15:37;;;;;;;4.53;2.03;;;;;;;14.91;60.02;100149.28;4320832;33;20150;-89
2021/04/26 08:18:02;;;;;;;6.87;1.70;;;;;;;15.13;60.02;100136.06;4320663;33;20276;-89
2021/04/26 08:20:28;;;;;;;2.72;2.20;;;;;;;15.40;60.05;100133.16;4320508;33;20104;-89
2021/04/26 08:22:53;;;;;;;3.15;1.60;;;;;;;15.55;60.05;100130.66;4345528;33;20134;-88
2021/04/26 08:25:19;;;;;;;4.80;1.40;;;;;;;15.56;60.05;100126.25;4321082;33;20162;-89
2021/04/26 08:27:45;;;;;;;4.15;2.05;;;;;;;15.85;60.07;100117.03;4321225;33;20131;-88
2021/04/26 08:30:10;;;;;;;3.90;1.60;;;;;;;15.95;60.08;100121.78;4333084;33;20595;-88
2021/04/26 08:32:36;;;;;;;3.10;1.35;;;;;;;15.77;60.06;100124.44;4321004;33;20190;-90
2021/04/26 08:35:02;;;;;;;2.85;1.80;;;;;;;16.01;60.08;100122.41;4321062;33;20175;-89
2021/04/26 08:37:28;;;;;;;3.50;1.73;;;;;;;16.12;60.08;100118.34;4321143;33;20174;-89
2021/04/26 08:39:53;;;;;;;6.95;2.80;;;;;;;16.37;60.09;100119.75;4344419;33;20117;-89
2021/04/26 08:42:19;;;;;;;3.20;1.60;;;;;;;16.25;60.09;100122.06;4345062;33;20163;-88
2021/04/26 08:44:45;;;;;;;4.65;2.00;;;;;;;16.14;60.08;100119.13;4332873;33;20147;-88
2021/04/26 08:47:10;;;;;;;5.85;1.85;;;;;;;15.80;60.07;100114.63;4320683;33;20530;-89
2021/04/26 08:49:36;;;;;;;2.78;1.60;;;;;;;16.03;60.08;100113.53;4332737;33;20130;-90
2021/04/26 08:52:01;;;;;;;7.50;1.70;;;;;;;16.19;60.09;100113.62;4332839;33;20114;-89
2021/04/26 08:54:27;;;;;;;4.37;1.80;;;;;;;16.52;60.10;100101.44;4332806;33;20137;-89
2021/04/26 08:56:52;;;;;;;3.70;1.77;;;;;;;16.83;60.12;100102.53;4320394;33;20107;-88
2021/04/26 08:59:18;;;;;;;3.65;1.77;;;;;;;16.90;60.12;100095.16;4320345;33;20110;-88
2021/04/26 09:01:47;;;;;;;5.75;2.10;;;;;;;16.55;60.11;100103.03;4346191;33;20138;-88
2021/04/26 09:04:13;;;;;;;3.45;2.30;;;;;;;16.06;60.08;100096.78;4334533;33;20163;-89
2021/04/26 09:06:58;;;;;;;4.85;2.00;;;;;;;16.22;60.08;100090.69;4334920;33;20398;-87
2021/04/26 09:09:40;;;;;;;5.25;1.92;;;;;;;16.50;60.11;100081.41;4322985;33;20189;-90
2021/04/26 09:12:09;;;;;;;5.65;2.08;;;;;;;16.53;60.10;100084.72;4322742;33;20121;-89
2021/04/26 09:14:38;;;;;;;3.30;1.75;;;;;;;16.38;60.11;100080.28;4322544;33;20167;-88
2021/04/26 09:17:24;;;;;;;2.93;2.03;;;;;;;16.41;60.11;100084.53;4346747;33;20682;-88
2021/04/26 09:19:50;;;;;;;5.57;1.90;;;;;;;16.47;60.11;100081.56;4327115;33;20099;-88
2021/04/26 09:22:16;;;;;;;4.60;2.50;;;;;;;16.67;60.11;100078.81;4346958;33;20122;-89
2021/04/26 09:24:41;;;;;;;5.30;2.55;;;;;;;16.55;60.11;100066.25;4346915;33;20197;-90
2021/04/26 09:27:12;;;;;;;6.78;2.35;;;;;;;16.80;60.12;100063.25;4322141;33;26483;-88
2021/04/26 09:29:41;;;;;;;4.45;2.33;;;;;;;16.55;60.11;100061.84;4346810;32;20409;-90
2021/04/26 09:32:09;;;;;;;6.10;2.37;;;;;;;16.85;60.13;100053.34;4322539;33;20116;-90
2021/04/26 09:34:41;;;;;;;3.67;1.83;;;;;;;16.79;60.12;100054.50;4322972;33;20123;-90
2021/04/26 09:37:22;;;;;;;3.53;2.40;;;;;;;16.85;60.14;100048.94;4346695;33;20159;-89
2021/04/26 09:40:01;;;;;;;7.55;2.50;;;;;;;16.93;60.13;100051.16;4346727;33;20181;-89
2021/04/26 09:42:41;;;;;;;5.90;2.87;;;;;;;16.88;60.13;100043.50;4322856;33;20519;-88
2021/04/26 09:45:26;;;;;;;4.03;1.90;;;;;;;17.22;60.15;100041.69;4346524;33;20124;-90
2021/04/26 09:48:09;;;;;;;4.87;2.70;;;;;;;17.38;60.16;100039.06;4346292;33;20184;-89
2021/04/26 09:50:55;;;;;;;5.30;2.55;;;;;;;17.16;60.15;100042.88;4346604;33;20153;-90
2021/04/26 09:53:25;;;;;;;4.53;2.12;;;;;;;17.08;60.15;100038.97;4322743;33;20119;-89
2021/04/26 09:55:51;;;;;;;4.72;2.45;;;;;;;17.26;60.15;100032.69;4333964;33;20103;-90
2021/04/26 09:58:16;;;;;;;7.07;2.55;;;;;;;17.34;60.15;100030.50;4321704;33;20112;-90
2021/04/26 10:00:46;;;;;;;3.87;2.42;;;;;;;17.30;60.16;100034.25;4321294;33;21508;-92
2021/04/26 10:03:13;;;;;;;3.92;2.75;;;;;;;17.14;60.14;100030.75;4321920;33;20171;-92
2021/04/26 10:05:40;;;;;;;3.08;2.10;;;;;;;17.31;60.15;100022.78;4345721;33;20226;-91
2021/04/26 10:08:05;;;;;;;3.25;2.62;;;;;;;17.58;60.17;100015.12;4333506;33;20750;-91
2021/04/26 10:10:31;;;;;;;7.97;2.58;;;;;;;17.83;60.17;100005.84;4345005;33;25947;-90
2021/04/26 10:12:56;;;;;;;5.22;2.30;;;;;;;17.54;60.17;100003.06;4321477;33;20131;-91
2021/04/26 10:15:25;;;;;;;5.53;2.40;;;;;;;17.67;60.17;100013.75;4334003;33;21508;-92
2021/04/26 10:17:51;;;;;;;4.82;2.65;;;;;;;17.79;60.18;100003.41;4334851;33;20137;-91
2021/04/26 10:20:30;;;;;;;5.07;2.70;;;;;;;18.02;60.19;100002.06;4322052;33;20155;-92
2021/04/26 10:22:56;;;;;;;4.43;2.35;;;;;;;18.41;60.21;99993.56;4323790;33;20095;-90
2021/04/26 10:25:22;;;;;;;9.32;2.85;;;;;;;18.81;60.23;99996.44;4321754;33;21556;-92
2021/04/26 10:27:48;;;;;;;6.18;2.70;;;;;;;18.99;60.25;99984.75;4346509;32;20595;-91
2021/04/26 10:30:15;;;;;;;4.68;2.50;;;;;;;19.08;60.25;99983.31;4331890;33;20131;-91
2021/04/26 10:32:59;;;;;;;4.35;2.58;;;;;;;19.01;60.25;99980.22;4343737;33;20166;-91
2021/04/26 10:35:46;;;;;;;4.47;2.53;;;;;;;18.69;60.23;99984.00;4345525;33;20104;-89
2021/04/26 10:38:33;;;;;;;6.47;2.50;;;;;;;18.59;60.22;99975.78;4335058;33;20175;-91
2021/04/26 10:40:59;;;;;;;4.50;2.50;;;;;;;18.63;60.23;99966.75;4347294;32;20449;-89
2021/04/26 10:43:28;;;;;;;3.67;2.35;;;;;;;18.48;60.22;99966.84;4333736;33;20107;-89
2021/04/26 10:46:15;;;;;;;4.12;2.58;;;;;;;18.41;60.21;99972.47;4321016;33;20138;-89
2021/04/26 10:49:06;;;;;;;5.30;2.47;;;;;;;18.39;60.21;99971.72;4347201;32;20139;-89
2021/04/26 10:51:32;;;;;;;3.70;2.53;;;;;;;18.30;60.21;99964.38;4347238;32;20126;-89
2021/04/26 10:53:57;;;;;;;4.15;2.72;;;;;;;17.85;60.19;99961.84;4333784;33;20950;-90
2021/04/26 10:56:27;;;;;;;4.22;2.85;;;;;;;18.02;60.19;99959.91;4332939;33;24983;-90
2021/04/26 10:59:16;;;;;;;3.90;2.60;;;;;;;17.97;60.19;99958.47;4333651;33;20477;-90
2021/04/26 11:01:53;;;;;;;5.10;2.22;;;;;;;18.13;60.20;99958.41;4338538;32;20092;-89
2021/04/26 11:04:19;;;;;;;4.37;2.62;;;;;;;18.16;60.20;99948.53;4345724;33;20107;-89
2021/04/26 11:06:58;;;;;;;4.07;2.53;;;;;;;18.28;60.20;99961.00;4345701;33;20514;-89
2021/04/26 11:09:38;;;;;;;6.12;2.40;;;;;;;18.16;60.20;99948.53;4345799;33;20481;-89
2021/04/26 11:12:26;;;;;;;6.80;3.40;;;;;;;18.65;60.22;99937.66;4333956;33;20586;-87
2021/04/26 11:14:51;;;;;;;4.80;2.62;;;;;;;18.90;60.25;99940.44;4345666;33;20272;-87
2021/04/26 11:17:17;;;;;;;7.10;3.60;;;;;;;19.05;60.25;99940.44;4332944;33;20791;-87
2021/04/26 11:20:09;;;;;;;4.50;2.55;;;;;;;19.11;60.25;99930.34;4332397;33;34478;-86
2021/04/26 11:22:35;;;;;;;5.47;2.67;;;;;;;19.25;60.26;99940.00;4345648;33;20160;-87
2021/04/26 11:25:02;;;;;;;8.35;3.00;;;;;;;19.25;60.26;99934.72;4332860;33;20394;-87
2021/04/26 11:27:27;;;;;;;6.53;2.97;;;;;;;19.31;60.27;99927.25;4333666;33;20095;-87
2021/04/26 11:29:53;;;;;;;4.85;2.62;;;;;;;19.51;60.27;99922.47;4333042;33;20141;-87
2021/04/26 11:32:19;;;;;;;3.58;2.62;;;;;;;19.82;60.29;99919.50;4346880;32;20523;-87